createdAt,value
2023-05-05T00:03:27.187Z,4.60
2023-05-05T00:08:28.986Z,4.35
2023-05-05T00:13:30.612Z,4.32
2023-05-05T00:18:33.774Z,4.32
2023-05-05T00:23:35.436Z,4.45
2023-05-05T00:28:37.016Z,4.18
2023-05-05T00:33:38.741Z,4.22
2023-05-05T00:38:41.614Z,4.45
2023-05-05T00:43:43.225Z,4.60
2023-05-05T00:48:45.544Z,4.15
2023-05-05T00:53:50.595Z,4.30
2023-05-05T00:58:52.286Z,4.13
2023-05-05T01:03:54.003Z,4.50
2023-05-05T01:09:12.193Z,4.50
2023-05-05T01:14:20.459Z,4.60
2023-05-05T01:19:40.507Z,4.35
2023-05-05T01:25:00.512Z,3.97
2023-05-05T01:30:03.874Z,5.07
2023-05-05T01:35:15.088Z,4.10
2023-05-05T01:40:23.793Z,5.03
2023-05-05T01:45:27.180Z,4.22
2023-05-05T01:50:29.069Z,4.60
2023-05-05T01:55:32.429Z,4.10
2023-05-05T02:00:34.583Z,4.13
2023-05-05T02:05:39.066Z,4.97
2023-05-05T02:10:40.867Z,4.60
2023-05-05T02:15:44.010Z,4.43
2023-05-05T02:20:46.793Z,4.72
2023-05-05T02:25:55.498Z,4.53
2023-05-05T02:30:58.422Z,4.68
2023-05-05T02:36:22.116Z,4.75
2023-05-05T02:41:29.661Z,4.93
2023-05-05T02:46:33.774Z,4.45
2023-05-05T02:51:35.579Z,4.32
2023-05-05T02:56:50.172Z,4.50
2023-05-05T03:02:07.689Z,4.38
2023-05-05T03:07:14.418Z,4.68
2023-05-05T03:12:22.624Z,4.28
2023-05-05T03:17:37.209Z,4.45
2023-05-05T03:22:39.392Z,4.53
2023-05-05T03:27:45.942Z,3.80
2023-05-05T03:32:50.559Z,4.50
2023-05-05T03:37:52.550Z,4.70
2023-05-05T03:42:54.235Z,4.50
2023-05-05T03:47:56.208Z,4.70
2023-05-05T03:52:58.053Z,4.30
2023-05-05T03:58:00.073Z,5.07
2023-05-05T04:03:01.966Z,4.40
2023-05-05T04:08:04.911Z,4.82
2023-05-05T04:13:07.331Z,4.15
2023-05-05T04:18:09.417Z,4.93
2023-05-05T04:23:11.166Z,4.43
2023-05-05T04:28:13.495Z,4.65
2023-05-05T04:33:15.172Z,4.47
2023-05-05T04:38:17.278Z,4.57
2023-05-05T04:43:19.836Z,4.75
2023-05-05T04:48:21.996Z,4.53
2023-05-05T04:53:23.732Z,4.38
2023-05-05T04:58:25.653Z,5.20
2023-05-05T05:03:27.422Z,5.00
2023-05-05T05:08:29.090Z,5.25
2023-05-05T05:13:30.810Z,4.90
2023-05-05T05:18:32.411Z,4.93
2023-05-05T05:23:34.347Z,4.70
2023-05-05T05:28:36.327Z,4.97
2023-05-05T05:33:37.953Z,5.00
2023-05-05T05:38:40.319Z,5.32
2023-05-05T05:43:42.376Z,5.15
2023-05-05T05:48:44.154Z,4.75
2023-05-05T05:53:45.918Z,5.45
2023-05-05T05:58:48.869Z,5.50
2023-05-05T06:03:51.104Z,4.78
2023-05-05T06:08:53.062Z,4.75
2023-05-05T06:13:55.096Z,5.15
2023-05-05T06:18:56.955Z,4.95
2023-05-05T06:23:58.600Z,5.00
2023-05-05T06:29:01.148Z,4.68
2023-05-05T06:34:02.934Z,4.90
2023-05-05T06:39:04.531Z,5.25
2023-05-05T06:44:06.085Z,4.50
2023-05-05T06:49:07.690Z,4.95
2023-05-05T06:54:09.286Z,4.63
2023-05-05T06:59:11.260Z,3.90
2023-05-05T07:04:12.992Z,3.95
2023-05-05T07:09:16.891Z,3.97
2023-05-05T07:14:18.748Z,3.40
2023-05-05T07:19:20.315Z,3.10
2023-05-05T07:24:21.975Z,3.60
2023-05-05T07:29:23.524Z,3.00
2023-05-05T07:34:25.505Z,3.60
2023-05-05T07:39:27.099Z,3.30
2023-05-05T07:44:28.676Z,3.20
2023-05-05T07:49:30.285Z,2.95
2023-05-05T07:54:32.076Z,3.28
2023-05-05T07:59:34.567Z,3.15
2023-05-05T08:04:36.227Z,2.88
2023-05-05T08:09:38.186Z,3.17
2023-05-05T08:14:42.387Z,3.45
2023-05-05T08:19:43.972Z,3.00
2023-05-05T08:24:46.198Z,3.00
2023-05-05T08:29:47.833Z,2.97
2023-05-05T08:34:49.439Z,3.10
2023-05-05T08:39:51.009Z,3.38
2023-05-05T08:44:53.084Z,2.90
2023-05-05T08:49:55.697Z,3.08
2023-05-05T08:55:08.709Z,2.90
2023-05-05T09:00:11.227Z,2.63
2023-05-05T09:05:12.874Z,2.80
2023-05-05T09:10:14.541Z,2.95
2023-05-05T09:15:16.326Z,2.70
2023-05-05T09:20:17.933Z,2.63
2023-05-05T09:25:19.518Z,2.50
2023-05-05T09:30:24.958Z,2.25
2023-05-05T09:35:26.839Z,2.72
2023-05-05T09:40:45.287Z,2.55
2023-05-05T09:45:48.771Z,2.80
2023-05-05T09:50:50.385Z,2.35
2023-05-05T09:55:59.870Z,2.45
2023-05-05T10:01:01.529Z,2.83
2023-05-05T10:06:04.621Z,2.70
2023-05-05T10:11:07.015Z,2.70
2023-05-05T10:16:09.699Z,2.47
2023-05-05T10:21:12.453Z,2.33
2023-05-05T10:26:15.178Z,2.60
2023-05-05T10:31:48.050Z,8.75
2023-05-05T10:36:49.786Z,3.58
2023-05-05T10:41:51.477Z,3.00
2023-05-05T10:46:53.085Z,2.42
2023-05-05T10:52:13.431Z,2.30
2023-05-05T10:57:16.808Z,2.13
2023-05-05T11:02:18.386Z,2.33
2023-05-05T11:07:23.838Z,2.33
2023-05-05T11:12:25.696Z,2.35
2023-05-05T11:17:46.602Z,2.50
2023-05-05T11:23:03.480Z,2.20
2023-05-05T11:28:11.093Z,2.20
2023-05-05T11:33:29.096Z,2.55
2023-05-05T11:38:36.324Z,2.08
2023-05-05T11:43:38.353Z,2.35
2023-05-05T11:48:49.379Z,2.15
2023-05-05T11:53:51.071Z,2.33
2023-05-05T11:59:09.186Z,2.50
2023-05-05T12:04:17.209Z,2.30
2023-05-05T12:09:20.293Z,2.20
2023-05-05T12:14:22.594Z,2.00
2023-05-05T12:19:24.402Z,2.10
2023-05-05T12:24:26.053Z,2.20
2023-05-05T12:29:29.094Z,2.10
2023-05-05T12:34:31.736Z,2.47
2023-05-05T12:39:39.127Z,2.25
2023-05-05T12:44:41.477Z,2.08
2023-05-05T12:49:50.943Z,2.20
2023-05-05T12:54:56.898Z,2.10
2023-05-05T12:59:58.532Z,2.50
2023-05-05T13:05:00.158Z,2.38
2023-05-05T13:10:11.122Z,2.55
2023-05-05T13:15:13.062Z,2.40
2023-05-05T13:20:15.039Z,2.30
2023-05-05T13:25:16.659Z,2.22
2023-05-05T13:30:18.273Z,2.28
2023-05-05T13:35:19.866Z,2.60
2023-05-05T13:40:22.270Z,2.30
2023-05-05T13:45:24.858Z,2.28
2023-05-05T13:50:26.475Z,2.05
2023-05-05T13:55:29.135Z,2.13
2023-05-05T14:00:30.931Z,2.10
2023-05-05T14:05:33.913Z,2.00
2023-05-05T14:10:36.266Z,2.70
2023-05-05T14:15:38.394Z,2.40
2023-05-05T14:20:39.988Z,2.30
2023-05-05T14:25:41.635Z,2.28
2023-05-05T14:30:43.291Z,2.40
2023-05-05T14:35:44.874Z,2.30
2023-05-05T14:40:46.443Z,2.30
2023-05-05T14:45:48.095Z,2.22
2023-05-05T14:50:49.944Z,2.33
2023-05-05T14:55:51.681Z,2.33
2023-05-05T15:00:54.509Z,2.40
2023-05-05T15:05:56.383Z,2.20
2023-05-05T15:10:58.069Z,2.63
2023-05-05T15:15:59.678Z,2.30
2023-05-05T15:21:01.279Z,2.15
2023-05-05T15:26:02.931Z,2.30
2023-05-05T15:31:05.954Z,2.40
2023-05-05T15:36:07.922Z,2.22
2023-05-05T15:41:09.529Z,2.03
2023-05-05T15:46:11.074Z,2.20
2023-05-05T15:51:12.826Z,2.38
2023-05-05T15:56:14.392Z,1.90
2023-05-05T16:01:16.540Z,2.05
2023-05-05T16:06:18.122Z,2.45
2023-05-05T16:11:22.324Z,2.13
2023-05-05T16:16:24.068Z,2.13
2023-05-05T16:21:25.862Z,2.25
2023-05-05T16:26:27.403Z,2.00
2023-05-05T16:31:29.080Z,2.42
2023-05-05T16:36:31.611Z,2.30
2023-05-05T16:41:33.254Z,2.95
2023-05-05T16:46:39.969Z,3.08
2023-05-05T16:51:41.649Z,2.67
2023-05-05T16:56:43.220Z,3.20
2023-05-05T17:01:44.897Z,3.13
2023-05-05T17:06:46.467Z,2.88
2023-05-05T17:11:48.037Z,2.65
2023-05-05T17:16:49.989Z,2.80
2023-05-05T17:21:51.595Z,2.80
2023-05-05T17:26:53.218Z,3.55
2023-05-05T17:31:55.071Z,2.65
2023-05-05T17:36:57.052Z,2.80
2023-05-05T17:41:58.680Z,3.17
2023-05-05T17:47:00.423Z,2.95
2023-05-05T17:52:02.091Z,2.92
2023-05-05T17:57:04.164Z,2.65
2023-05-05T18:02:05.737Z,3.00
2023-05-05T18:07:07.686Z,3.22
2023-05-05T18:12:09.313Z,3.90
2023-05-05T18:17:10.991Z,3.38
2023-05-05T18:22:13.596Z,3.78
2023-05-05T18:27:15.550Z,3.60
2023-05-05T18:32:17.149Z,3.50
2023-05-05T18:37:18.737Z,3.67
2023-05-05T18:42:20.306Z,3.70
2023-05-05T18:47:22.056Z,3.55
2023-05-05T18:52:23.641Z,3.55
2023-05-05T18:57:25.918Z,3.50
2023-05-05T19:02:27.523Z,3.25
2023-05-05T19:07:35.542Z,3.67
2023-05-05T19:12:37.697Z,3.75
2023-05-05T19:17:39.353Z,3.38
2023-05-05T19:22:41.038Z,3.25
2023-05-05T19:27:42.698Z,3.30
2023-05-05T19:32:45.240Z,3.40
2023-05-05T19:37:46.842Z,3.65
2023-05-05T19:42:48.440Z,3.40
2023-05-05T19:47:50.080Z,3.63
2023-05-05T19:52:51.707Z,4.10
2023-05-05T19:57:53.408Z,4.05
2023-05-05T20:02:55.123Z,3.53
2023-05-05T20:07:56.949Z,3.60
2023-05-05T20:12:58.759Z,4.10
2023-05-05T20:18:00.608Z,4.40
2023-05-05T20:23:02.311Z,3.90
2023-05-05T20:28:03.998Z,4.03
2023-05-05T20:33:05.670Z,3.55
2023-05-05T20:38:07.373Z,3.58
2023-05-05T20:43:08.977Z,3.30
2023-05-05T20:48:11.484Z,3.83
2023-05-05T20:53:16.054Z,3.80
2023-05-05T20:58:17.752Z,3.38
2023-05-05T21:03:19.343Z,3.72
2023-05-05T21:08:21.206Z,3.83
2023-05-05T21:13:22.938Z,3.95
2023-05-05T21:18:25.747Z,3.33
2023-05-05T21:23:27.431Z,3.65
2023-05-05T21:28:29.000Z,4.00
2023-05-05T21:33:30.732Z,3.83
2023-05-05T21:38:32.388Z,3.50
2023-05-05T21:43:34.097Z,4.10
2023-05-05T21:48:38.590Z,3.53
2023-05-05T21:53:40.681Z,3.85
2023-05-05T21:58:42.230Z,3.88
2023-05-05T22:03:43.970Z,4.07
2023-05-05T22:08:46.315Z,4.22
2023-05-05T22:13:48.056Z,4.05
2023-05-05T22:18:49.752Z,3.35
2023-05-05T22:23:51.324Z,4.10
2023-05-05T22:28:52.876Z,3.60
2023-05-05T22:33:54.528Z,4.32
2023-05-05T22:38:56.361Z,4.20
2023-05-05T22:43:57.992Z,3.97
2023-05-05T22:48:59.805Z,4.18
2023-05-05T22:54:02.643Z,4.90
2023-05-05T22:59:05.419Z,4.15
2023-05-05T23:04:07.481Z,3.95
2023-05-05T23:09:09.362Z,4.70
2023-05-05T23:14:11.048Z,4.68
2023-05-05T23:19:13.651Z,4.93
2023-05-05T23:24:15.307Z,5.07
2023-05-05T23:29:16.897Z,5.53
2023-05-05T23:34:18.480Z,5.00
2023-05-05T23:39:20.038Z,5.03
2023-05-05T23:44:21.601Z,4.72
2023-05-05T23:49:24.896Z,4.35
2023-05-05T23:54:26.514Z,4.78
2023-05-05T23:59:28.069Z,4.65
